Huson, Montana
Current Conditions -  °F | °C
As of 2:53 AM on Sunday 26 Oct 2014 (Local Time) from KMSO Reporting Station
Overcast Overcast  
Wind Chill: 50°   Ceiling: 9500
Heat Index: 50°   Visibility: 10mi
Dew Point: 40°   Wind: 6mph
Humidity: 68%   Direction: 60°ENE
Pressure: 29.74"   Gusts: NA
Location:  47.03°N, 114.33°W
Report Text: KMSO 260853Z AUTO 06005KT 10SM FEW050 OVC095 10/04 A2974 RMK AO2 RAB11E28 SLP074 P0000 60000 T01000044 53025
Loading
Personal Weather Stations






























Interactive Weather Map
Tropical Storm Tracking
New forecast layout! Learn more

10-Day Weather Forecast

Advertisements
Track Severe Weather on mobile